Terminal Aerodrome Forecast
Issued by NWS St Louis, MO

Home | Current Version | Previous Version | Text Only | Print | Product List | Glossary On
Versions: 1 2 3 4 5 6 7 8 9 10 11 12 13 14 15 16 17 18 19 20 21 22 23 24 25 26 27 28 29
000
FTUS43 KLSX 261956 AAA
TAFSTL
TAF AMD
KSTL 261956Z 2620/2724 25010KT P6SM OVC025
     FM262200 22005KT P6SM BKN040
     FM271200 13006KT 5SM SHRA SCT007 OVC015
     FM272000 24005KT 6SM -SHRA OVC035
     FM272300 32006KT P6SM VCSH BKN025=

USA.gov is the U.S. government's official web portal to all federal, state and local government web resources and services.